Flight Track Log - Related Links

Times and Time Zones

All times are in EDT time to prevent confusion due to time zone crossing. See the EGF2820 flight status page for this flight to view local times or setup timezone preferences in your user account.


Time Position Orientation Groundspeed Altitude Reporting Facility
EDT Latitude Longitude Course Direction KTS MPH feet Rate Location/Type
Fri 06:38:05 AM 31.0497 -97.8281 North 169 194 1,700  Level Fort Worth Center
Fri 06:39:12 AM 31.0578 -97.8764 281° West 225 259 3,600 1,573 Climbing Fort Worth Center
Fri 06:39:48 AM 31.1058 -97.9011 336° Northwest 272 313 4,400 2,000 Climbing Fort Worth Center
Fri 06:40:00 AM 31.1494 -98.0487 300° West  Level FlightAware Approximate
Fri 06:40:48 AM 31.1747 -97.9328 339° North 278 320 6,800  Level Fort Worth Center
Fri 06:41:00 AM 31.1805 -98.1247 291° West  Level FlightAware Approximate
Fri 06:41:48 AM 31.2433 -97.9575 343° North 308 354 9,200  Level Fort Worth Center
Fri 06:42:00 AM 31.2442 -98.1090 19° North  Level FlightAware Approximate
Fri 06:42:48 AM 31.3247 -97.9508 North 293 337 11,000  Level Fort Worth Center
Fri 06:43:00 AM 31.3149 -98.0931 North  Level FlightAware Approximate
Fri 06:43:48 AM 31.4125 -97.9294 12° North 303 349 12,200  Level Fort Worth Center
Fri 06:44:48 AM 31.5047 -97.9031 14° North 329 379 13,300 1,000 Climbing Fort Worth Center
Fri 06:45:48 AM 31.5944 -97.8767 14° North 347 399 14,200 950 Climbing Fort Worth Center
Fri 06:46:48 AM 31.6928 -97.8503 13° North 358 412 15,200 1,050 Climbing Fort Worth Center
Fri 06:47:48 AM 31.7950 -97.8192 15° North 358 412 16,300 900 Climbing Fort Worth Center
Fri 06:48:48 AM 31.8994 -97.7903 13° North 374 430 17,000 350 Climbing Fort Worth Center
Fri 06:49:48 AM 32.0144 -97.7539 15° North 379 436 17,000  Level Fort Worth Center
Fri 06:50:48 AM 32.1106 -97.7272 13° North 390 449 17,000 -450 Level Fort Worth Center
Fri 06:51:48 AM 32.2317 -97.6933 13° North 400 460 16,100 -1,350 Descending Fort Worth Center
Fri 06:52:48 AM 32.3258 -97.6642 15° North 390 449 14,300 -1,950 Descending Fort Worth Center
Fri 06:53:48 AM 32.4136 -97.5783 40° Northeast 365 420 12,200 -1,650 Descending Fort Worth Center
Fri 06:54:48 AM 32.4764 -97.4972 47° Northeast 365 420 11,000 -600 Descending Fort Worth Center
Fri 06:55:48 AM 32.5558 -97.4011 46° Northeast 365 420 11,000  Level Fort Worth Center
Fri 06:56:48 AM 32.6203 -97.3222 46° Northeast 365 420 11,000 -150 Level Fort Worth Center
Fri 06:57:48 AM 32.7081 -97.2506 34° Northeast 350 403 10,700 -1,000 Descending Fort Worth Center
Fri 06:58:48 AM 32.7769 -97.2183 21° North 302 348 9,000 -2,000 Descending Fort Worth Center
Fri 06:59:48 AM 32.8561 -97.1736 25° Northeast 283 326 6,700 -2,300 Descending Fort Worth Center

Login

Don't have an account? Register now (free) for customized features, flight alerts, and more!